sensor_id;sensor_type;location;lat;lon;timestamp;P1;durP1;ratioP1;P2;durP2;ratioP2
67597;SDS011;62026;39.230;9.122;2023-07-20T00:02:24;16.73;;;4.53;;
67597;SDS011;62026;39.230;9.122;2023-07-20T00:04:49;19.67;;;4.30;;
67597;SDS011;62026;39.230;9.122;2023-07-20T00:07:15;18.33;;;4.10;;
67597;SDS011;62026;39.230;9.122;2023-07-20T00:09:41;18.15;;;4.10;;
67597;SDS011;62026;39.230;9.122;2023-07-20T00:12:07;21.90;;;4.05;;
67597;SDS011;62026;39.230;9.122;2023-07-20T00:14:34;25.90;;;4.18;;
67597;SDS011;62026;39.230;9.122;2023-07-20T00:17:00;15.52;;;3.97;;
67597;SDS011;62026;39.230;9.122;2023-07-20T00:19:27;21.20;;;4.32;;
67597;SDS011;62026;39.230;9.122;2023-07-20T00:21:54;20.88;;;4.68;;
67597;SDS011;62026;39.230;9.122;2023-07-20T00:24:20;16.70;;;4.03;;
67597;SDS011;62026;39.230;9.122;2023-07-20T00:26:47;20.00;;;3.92;;
67597;SDS011;62026;39.230;9.122;2023-07-20T00:29:13;19.75;;;4.35;;
67597;SDS011;62026;39.230;9.122;2023-07-20T00:31:39;19.73;;;4.45;;
67597;SDS011;62026;39.230;9.122;2023-07-20T00:34:05;21.90;;;4.20;;
67597;SDS011;62026;39.230;9.122;2023-07-20T00:36:32;26.30;;;4.50;;
67597;SDS011;62026;39.230;9.122;2023-07-20T00:39:01;23.05;;;4.63;;
67597;SDS011;62026;39.230;9.122;2023-07-20T00:41:28;19.95;;;4.10;;
67597;SDS011;62026;39.230;9.122;2023-07-20T00:43:58;17.10;;;3.63;;
67597;SDS011;62026;39.230;9.122;2023-07-20T00:46:24;19.60;;;3.90;;
67597;SDS011;62026;39.230;9.122;2023-07-20T00:48:51;20.70;;;4.53;;
67597;SDS011;62026;39.230;9.122;2023-07-20T00:51:18;20.85;;;4.30;;
67597;SDS011;62026;39.230;9.122;2023-07-20T00:53:46;21.10;;;4.07;;
67597;SDS011;62026;39.230;9.122;2023-07-20T00:56:14;18.27;;;3.92;;
67597;SDS011;62026;39.230;9.122;2023-07-20T00:58:41;17.60;;;4.32;;
67597;SDS011;62026;39.230;9.122;2023-07-20T01:01:07;16.77;;;3.72;;
67597;SDS011;62026;39.230;9.122;2023-07-20T01:03:33;22.73;;;4.50;;
67597;SDS011;62026;39.230;9.122;2023-07-20T01:06:02;17.83;;;3.83;;
67597;SDS011;62026;39.230;9.122;2023-07-20T01:14:14;19.05;;;4.57;;
67597;SDS011;62026;39.230;9.122;2023-07-20T01:16:41;15.68;;;4.28;;
67597;SDS011;62026;39.230;9.122;2023-07-20T01:19:12;21.10;;;4.60;;
67597;SDS011;62026;39.230;9.122;2023-07-20T01:24:32;15.80;;;4.32;;
67597;SDS011;62026;39.230;9.122;2023-07-20T01:33:00;11.10;;;3.97;;
67597;SDS011;62026;39.230;9.122;2023-07-20T01:35:28;18.85;;;3.95;;
67597;SDS011;62026;39.230;9.122;2023-07-20T01:37:57;21.33;;;4.63;;
67597;SDS011;62026;39.230;9.122;2023-07-20T01:40:24;24.00;;;4.55;;
67597;SDS011;62026;39.230;9.122;2023-07-20T01:42:52;12.18;;;4.30;;
67597;SDS011;62026;39.230;9.122;2023-07-20T01:45:18;19.67;;;4.00;;
67597;SDS011;62026;39.230;9.122;2023-07-20T01:47:44;14.73;;;3.75;;
67597;SDS011;62026;39.230;9.122;2023-07-20T01:50:10;19.77;;;4.22;;
67597;SDS011;62026;39.230;9.122;2023-07-20T01:52:37;16.80;;;4.10;;
67597;SDS011;62026;39.230;9.122;2023-07-20T01:55:03;17.52;;;4.50;;
67597;SDS011;62026;39.230;9.122;2023-07-20T01:57:30;18.45;;;4.53;;
67597;SDS011;62026;39.230;9.122;2023-07-20T01:59:57;15.45;;;3.85;;
67597;SDS011;62026;39.230;9.122;2023-07-20T02:02:26;17.45;;;3.58;;
67597;SDS011;62026;39.230;9.122;2023-07-20T02:04:55;16.85;;;4.45;;
67597;SDS011;62026;39.230;9.122;2023-07-20T02:07:21;21.10;;;4.38;;
67597;SDS011;62026;39.230;9.122;2023-07-20T02:09:47;26.95;;;4.72;;
67597;SDS011;62026;39.230;9.122;2023-07-20T02:12:13;14.63;;;4.07;;
67597;SDS011;62026;39.230;9.122;2023-07-20T02:14:39;33.65;;;4.88;;
67597;SDS011;62026;39.230;9.122;2023-07-20T02:17:05;15.70;;;3.67;;
67597;SDS011;62026;39.230;9.122;2023-07-20T02:19:32;15.77;;;4.85;;
67597;SDS011;62026;39.230;9.122;2023-07-20T02:21:59;18.92;;;4.82;;
67597;SDS011;62026;39.230;9.122;2023-07-20T02:24:25;20.05;;;4.10;;
67597;SDS011;62026;39.230;9.122;2023-07-20T02:26:51;20.90;;;4.15;;
67597;SDS011;62026;39.230;9.122;2023-07-20T02:29:17;16.60;;;4.15;;
67597;SDS011;62026;39.230;9.122;2023-07-20T02:31:43;22.13;;;4.90;;
67597;SDS011;62026;39.230;9.122;2023-07-20T02:34:09;14.93;;;4.13;;
67597;SDS011;62026;39.230;9.122;2023-07-20T02:36:35;15.98;;;3.67;;
67597;SDS011;62026;39.230;9.122;2023-07-20T02:39:01;17.60;;;4.47;;
67597;SDS011;62026;39.230;9.122;2023-07-20T02:41:30;18.77;;;4.13;;
67597;SDS011;62026;39.230;9.122;2023-07-20T02:43:58;22.70;;;4.50;;
67597;SDS011;62026;39.230;9.122;2023-07-20T02:46:24;20.27;;;4.18;;
67597;SDS011;62026;39.230;9.122;2023-07-20T02:48:50;24.13;;;4.65;;
67597;SDS011;62026;39.230;9.122;2023-07-20T02:51:16;11.85;;;4.13;;
67597;SDS011;62026;39.230;9.122;2023-07-20T02:53:42;19.95;;;4.35;;
67597;SDS011;62026;39.230;9.122;2023-07-20T02:56:09;15.90;;;3.58;;
67597;SDS011;62026;39.230;9.122;2023-07-20T02:58:34;15.68;;;4.00;;
67597;SDS011;62026;39.230;9.122;2023-07-20T03:01:03;24.20;;;4.47;;
67597;SDS011;62026;39.230;9.122;2023-07-20T03:03:29;17.83;;;4.07;;
67597;SDS011;62026;39.230;9.122;2023-07-20T03:05:55;15.48;;;4.43;;
67597;SDS011;62026;39.230;9.122;2023-07-20T03:08:24;17.73;;;4.38;;
67597;SDS011;62026;39.230;9.122;2023-07-20T03:10:50;22.80;;;4.35;;
67597;SDS011;62026;39.230;9.122;2023-07-20T03:13:16;13.35;;;3.47;;
67597;SDS011;62026;39.230;9.122;2023-07-20T03:15:42;17.20;;;3.80;;
67597;SDS011;62026;39.230;9.122;2023-07-20T03:18:08;16.85;;;3.95;;
67597;SDS011;62026;39.230;9.122;2023-07-20T03:20:35;17.13;;;3.67;;
67597;SDS011;62026;39.230;9.122;2023-07-20T03:23:02;17.10;;;3.60;;
67597;SDS011;62026;39.230;9.122;2023-07-20T03:25:28;16.40;;;3.72;;
67597;SDS011;62026;39.230;9.122;2023-07-20T03:27:54;20.00;;;4.28;;
67597;SDS011;62026;39.230;9.122;2023-07-20T03:30:20;17.80;;;3.70;;
67597;SDS011;62026;39.230;9.122;2023-07-20T03:32:47;14.05;;;3.55;;
67597;SDS011;62026;39.230;9.122;2023-07-20T03:35:14;14.80;;;3.85;;
67597;SDS011;62026;39.230;9.122;2023-07-20T03:37:41;16.95;;;3.83;;
67597;SDS011;62026;39.230;9.122;2023-07-20T03:40:07;12.80;;;3.58;;
67597;SDS011;62026;39.230;9.122;2023-07-20T03:42:34;15.68;;;4.10;;
67597;SDS011;62026;39.230;9.122;2023-07-20T03:45:00;15.35;;;4.43;;
67597;SDS011;62026;39.230;9.122;2023-07-20T03:47:26;22.02;;;4.82;;
67597;SDS011;62026;39.230;9.122;2023-07-20T03:49:52;15.50;;;3.70;;
67597;SDS011;62026;39.230;9.122;2023-07-20T03:52:18;20.27;;;4.22;;
67597;SDS011;62026;39.230;9.122;2023-07-20T03:54:44;15.70;;;4.32;;
67597;SDS011;62026;39.230;9.122;2023-07-20T03:57:10;17.27;;;3.80;;
67597;SDS011;62026;39.230;9.122;2023-07-20T03:59:37;17.65;;;4.03;;
67597;SDS011;62026;39.230;9.122;2023-07-20T04:02:05;15.32;;;4.50;;
67597;SDS011;62026;39.230;9.122;2023-07-20T04:04:31;15.15;;;4.18;;
67597;SDS011;62026;39.230;9.122;2023-07-20T04:06:57;10.63;;;3.72;;
67597;SDS011;62026;39.230;9.122;2023-07-20T04:09:23;20.40;;;3.70;;
67597;SDS011;62026;39.230;9.122;2023-07-20T04:11:49;15.77;;;3.80;;
67597;SDS011;62026;39.230;9.122;2023-07-20T04:14:15;15.50;;;3.78;;
67597;SDS011;62026;39.230;9.122;2023-07-20T04:16:41;16.00;;;3.67;;
67597;SDS011;62026;39.230;9.122;2023-07-20T04:19:07;15.05;;;3.67;;
67597;SDS011;62026;39.230;9.122;2023-07-20T04:21:39;15.35;;;3.97;;
67597;SDS011;62026;39.230;9.122;2023-07-20T04:24:08;13.90;;;3.60;;
67597;SDS011;62026;39.230;9.122;2023-07-20T04:26:34;13.88;;;3.92;;
67597;SDS011;62026;39.230;9.122;2023-07-20T04:29:02;13.35;;;3.83;;
67597;SDS011;62026;39.230;9.122;2023-07-20T04:31:34;12.88;;;3.58;;
67597;SDS011;62026;39.230;9.122;2023-07-20T04:34:02;15.05;;;3.60;;
67597;SDS011;62026;39.230;9.122;2023-07-20T04:36:28;16.27;;;4.38;;
67597;SDS011;62026;39.230;9.122;2023-07-20T04:38:55;11.43;;;4.00;;
67597;SDS011;62026;39.230;9.122;2023-07-20T04:41:22;10.27;;;3.92;;
67597;SDS011;62026;39.230;9.122;2023-07-20T04:43:50;11.93;;;4.13;;
67597;SDS011;62026;39.230;9.122;2023-07-20T04:46:23;16.92;;;4.32;;
67597;SDS011;62026;39.230;9.122;2023-07-20T04:48:49;16.20;;;4.95;;
67597;SDS011;62026;39.230;9.122;2023-07-20T04:51:16;17.08;;;4.72;;
67597;SDS011;62026;39.230;9.122;2023-07-20T04:53:49;9.15;;;4.55;;
67597;SDS011;62026;39.230;9.122;2023-07-20T04:56:15;14.23;;;4.75;;
67597;SDS011;62026;39.230;9.122;2023-07-20T04:58:41;13.63;;;5.10;;
67597;SDS011;62026;39.230;9.122;2023-07-20T05:01:08;11.85;;;4.72;;
67597;SDS011;62026;39.230;9.122;2023-07-20T05:03:35;16.00;;;5.47;;
67597;SDS011;62026;39.230;9.122;2023-07-20T05:06:01;14.43;;;5.18;;
67597;SDS011;62026;39.230;9.122;2023-07-20T05:08:27;10.27;;;4.78;;
67597;SDS011;62026;39.230;9.122;2023-07-20T05:10:54;15.63;;;4.93;;
67597;SDS011;62026;39.230;9.122;2023-07-20T05:13:20;14.05;;;5.45;;
67597;SDS011;62026;39.230;9.122;2023-07-20T05:15:50;16.83;;;6.45;;
67597;SDS011;62026;39.230;9.122;2023-07-20T05:18:19;16.23;;;5.07;;
67597;SDS011;62026;39.230;9.122;2023-07-20T05:20:47;18.55;;;5.45;;
67597;SDS011;62026;39.230;9.122;2023-07-20T05:23:14;13.50;;;4.57;;
67597;SDS011;62026;39.230;9.122;2023-07-20T05:25:45;18.23;;;5.13;;
67597;SDS011;62026;39.230;9.122;2023-07-20T05:28:11;15.05;;;4.68;;
67597;SDS011;62026;39.230;9.122;2023-07-20T05:30:37;13.00;;;4.90;;
67597;SDS011;62026;39.230;9.122;2023-07-20T05:33:03;17.98;;;5.30;;
67597;SDS011;62026;39.230;9.122;2023-07-20T05:35:29;16.10;;;4.65;;
67597;SDS011;62026;39.230;9.122;2023-07-20T05:37:55;16.13;;;5.00;;
67597;SDS011;62026;39.230;9.122;2023-07-20T05:40:21;11.80;;;4.95;;
67597;SDS011;62026;39.230;9.122;2023-07-20T05:42:48;19.80;;;5.40;;
67597;SDS011;62026;39.230;9.122;2023-07-20T05:45:17;14.52;;;4.47;;
67597;SDS011;62026;39.230;9.122;2023-07-20T05:47:43;15.48;;;4.88;;
67597;SDS011;62026;39.230;9.122;2023-07-20T05:50:10;14.57;;;5.10;;
67597;SDS011;62026;39.230;9.122;2023-07-20T05:52:36;11.60;;;4.18;;
67597;SDS011;62026;39.230;9.122;2023-07-20T05:55:04;19.05;;;4.65;;
67597;SDS011;62026;39.230;9.122;2023-07-20T05:57:31;15.32;;;5.57;;
67597;SDS011;62026;39.230;9.122;2023-07-20T05:59:57;20.05;;;4.70;;
67597;SDS011;62026;39.230;9.122;2023-07-20T06:02:23;17.58;;;4.70;;
67597;SDS011;62026;39.230;9.122;2023-07-20T06:04:49;16.92;;;4.63;;
67597;SDS011;62026;39.230;9.122;2023-07-20T06:07:15;18.42;;;4.40;;
67597;SDS011;62026;39.230;9.122;2023-07-20T06:09:41;20.85;;;4.70;;
67597;SDS011;62026;39.230;9.122;2023-07-20T06:12:07;12.35;;;3.90;;
67597;SDS011;62026;39.230;9.122;2023-07-20T06:14:34;19.23;;;4.65;;
67597;SDS011;62026;39.230;9.122;2023-07-20T06:17:00;19.48;;;4.32;;
67597;SDS011;62026;39.230;9.122;2023-07-20T06:19:26;18.02;;;3.70;;
67597;SDS011;62026;39.230;9.122;2023-07-20T06:21:52;16.40;;;4.18;;
67597;SDS011;62026;39.230;9.122;2023-07-20T06:24:18;20.60;;;4.15;;
67597;SDS011;62026;39.230;9.122;2023-07-20T06:26:44;13.32;;;3.58;;
67597;SDS011;62026;39.230;9.122;2023-07-20T06:29:10;12.93;;;3.97;;
67597;SDS011;62026;39.230;9.122;2023-07-20T06:31:37;18.95;;;4.32;;
67597;SDS011;62026;39.230;9.122;2023-07-20T06:34:03;13.70;;;4.32;;
67597;SDS011;62026;39.230;9.122;2023-07-20T06:36:29;12.40;;;3.80;;
67597;SDS011;62026;39.230;9.122;2023-07-20T06:38:55;15.23;;;4.22;;
67597;SDS011;62026;39.230;9.122;2023-07-20T06:41:21;18.13;;;4.28;;
67597;SDS011;62026;39.230;9.122;2023-07-20T06:43:48;18.77;;;4.20;;
67597;SDS011;62026;39.230;9.122;2023-07-20T06:46:14;17.00;;;4.32;;
67597;SDS011;62026;39.230;9.122;2023-07-20T06:48:40;18.35;;;3.85;;
67597;SDS011;62026;39.230;9.122;2023-07-20T06:51:06;16.88;;;4.30;;
67597;SDS011;62026;39.230;9.122;2023-07-20T06:53:32;14.40;;;4.57;;
67597;SDS011;62026;39.230;9.122;2023-07-20T06:55:58;18.83;;;4.40;;
67597;SDS011;62026;39.230;9.122;2023-07-20T06:58:24;18.25;;;4.55;;
67597;SDS011;62026;39.230;9.122;2023-07-20T07:00:51;17.83;;;3.92;;
67597;SDS011;62026;39.230;9.122;2023-07-20T07:03:17;21.25;;;4.25;;
67597;SDS011;62026;39.230;9.122;2023-07-20T07:05:43;23.10;;;4.50;;
67597;SDS011;62026;39.230;9.122;2023-07-20T07:08:10;17.83;;;4.35;;
67597;SDS011;62026;39.230;9.122;2023-07-20T07:10:38;16.70;;;3.83;;
67597;SDS011;62026;39.230;9.122;2023-07-20T07:13:04;21.30;;;5.32;;
67597;SDS011;62026;39.230;9.122;2023-07-20T07:15:30;22.70;;;4.30;;
67597;SDS011;62026;39.230;9.122;2023-07-20T07:17:56;18.15;;;4.38;;
67597;SDS011;62026;39.230;9.122;2023-07-20T07:20:24;12.82;;;4.13;;
67597;SDS011;62026;39.230;9.122;2023-07-20T07:22:51;14.75;;;3.83;;
67597;SDS011;62026;39.230;9.122;2023-07-20T07:25:18;18.92;;;4.43;;
67597;SDS011;62026;39.230;9.122;2023-07-20T07:27:44;20.40;;;4.28;;
67597;SDS011;62026;39.230;9.122;2023-07-20T07:30:10;21.98;;;4.03;;
67597;SDS011;62026;39.230;9.122;2023-07-20T07:32:37;13.40;;;4.05;;
67597;SDS011;62026;39.230;9.122;2023-07-20T07:35:04;19.42;;;4.05;;
67597;SDS011;62026;39.230;9.122;2023-07-20T07:37:30;15.65;;;3.70;;
67597;SDS011;62026;39.230;9.122;2023-07-20T07:39:56;20.73;;;4.53;;
67597;SDS011;62026;39.230;9.122;2023-07-20T07:42:23;20.23;;;4.47;;
67597;SDS011;62026;39.230;9.122;2023-07-20T07:44:48;20.23;;;4.82;;
67597;SDS011;62026;39.230;9.122;2023-07-20T07:47:14;13.65;;;3.40;;
67597;SDS011;62026;39.230;9.122;2023-07-20T07:49:41;21.88;;;3.72;;
67597;SDS011;62026;39.230;9.122;2023-07-20T07:52:08;17.05;;;4.13;;
67597;SDS011;62026;39.230;9.122;2023-07-20T07:54:34;15.13;;;4.00;;
67597;SDS011;62026;39.230;9.122;2023-07-20T07:57:00;17.67;;;3.33;;
67597;SDS011;62026;39.230;9.122;2023-07-20T07:59:26;14.07;;;3.80;;
67597;SDS011;62026;39.230;9.122;2023-07-20T08:01:52;9.85;;;3.92;;
67597;SDS011;62026;39.230;9.122;2023-07-20T08:04:18;28.15;;;4.38;;
67597;SDS011;62026;39.230;9.122;2023-07-20T08:06:44;18.60;;;3.80;;
67597;SDS011;62026;39.230;9.122;2023-07-20T08:09:10;24.73;;;4.25;;
67597;SDS011;62026;39.230;9.122;2023-07-20T08:11:38;16.02;;;4.10;;
67597;SDS011;62026;39.230;9.122;2023-07-20T08:14:05;16.50;;;4.18;;
67597;SDS011;62026;39.230;9.122;2023-07-20T08:16:31;19.30;;;4.05;;
67597;SDS011;62026;39.230;9.122;2023-07-20T08:18:57;22.92;;;5.05;;
67597;SDS011;62026;39.230;9.122;2023-07-20T08:21:23;14.27;;;4.07;;
67597;SDS011;62026;39.230;9.122;2023-07-20T08:23:49;24.80;;;4.18;;
67597;SDS011;62026;39.230;9.122;2023-07-20T08:26:15;17.23;;;4.38;;
67597;SDS011;62026;39.230;9.122;2023-07-20T08:28:42;21.77;;;4.40;;
67597;SDS011;62026;39.230;9.122;2023-07-20T08:31:10;18.50;;;4.28;;
67597;SDS011;62026;39.230;9.122;2023-07-20T08:33:36;15.65;;;3.80;;
67597;SDS011;62026;39.230;9.122;2023-07-20T08:36:02;26.50;;;4.30;;
67597;SDS011;62026;39.230;9.122;2023-07-20T08:38:29;12.52;;;4.00;;
67597;SDS011;62026;39.230;9.122;2023-07-20T08:40:55;19.13;;;3.78;;
67597;SDS011;62026;39.230;9.122;2023-07-20T08:43:21;14.55;;;3.42;;
67597;SDS011;62026;39.230;9.122;2023-07-20T08:45:52;13.15;;;3.90;;
67597;SDS011;62026;39.230;9.122;2023-07-20T08:48:24;12.30;;;3.80;;
67597;SDS011;62026;39.230;9.122;2023-07-20T08:50:52;19.83;;;3.50;;
67597;SDS011;62026;39.230;9.122;2023-07-20T08:53:20;18.25;;;4.05;;
67597;SDS011;62026;39.230;9.122;2023-07-20T08:55:46;19.95;;;4.07;;
67597;SDS011;62026;39.230;9.122;2023-07-20T08:58:17;15.10;;;4.35;;
67597;SDS011;62026;39.230;9.122;2023-07-20T09:00:44;19.25;;;4.00;;
67597;SDS011;62026;39.230;9.122;2023-07-20T09:03:11;18.30;;;4.15;;
67597;SDS011;62026;39.230;9.122;2023-07-20T09:05:39;20.55;;;3.83;;
67597;SDS011;62026;39.230;9.122;2023-07-20T09:08:05;23.20;;;3.92;;
67597;SDS011;62026;39.230;9.122;2023-07-20T09:10:32;18.27;;;4.03;;
67597;SDS011;62026;39.230;9.122;2023-07-20T09:12:58;26.10;;;5.25;;
67597;SDS011;62026;39.230;9.122;2023-07-20T09:15:25;22.95;;;4.00;;
67597;SDS011;62026;39.230;9.122;2023-07-20T09:17:51;17.88;;;4.25;;
67597;SDS011;62026;39.230;9.122;2023-07-20T09:20:19;16.75;;;4.22;;
67597;SDS011;62026;39.230;9.122;2023-07-20T09:22:45;24.25;;;3.95;;
67597;SDS011;62026;39.230;9.122;2023-07-20T09:25:13;16.52;;;3.83;;
67597;SDS011;62026;39.230;9.122;2023-07-20T09:27:50;15.60;;;4.47;;
67597;SDS011;62026;39.230;9.122;2023-07-20T09:30:16;20.70;;;3.80;;
67597;SDS011;62026;39.230;9.122;2023-07-20T09:32:49;20.10;;;4.30;;
67597;SDS011;62026;39.230;9.122;2023-07-20T09:35:19;13.38;;;3.70;;
67597;SDS011;62026;39.230;9.122;2023-07-20T09:37:49;17.40;;;4.05;;
67597;SDS011;62026;39.230;9.122;2023-07-20T09:40:24;19.35;;;3.88;;
67597;SDS011;62026;39.230;9.122;2023-07-20T09:42:52;16.50;;;3.80;;
67597;SDS011;62026;39.230;9.122;2023-07-20T09:45:35;17.90;;;4.32;;
67597;SDS011;62026;39.230;9.122;2023-07-20T09:48:08;17.88;;;4.55;;
67597;SDS011;62026;39.230;9.122;2023-07-20T09:50:42;16.15;;;4.00;;
67597;SDS011;62026;39.230;9.122;2023-07-20T09:53:16;14.18;;;4.18;;
67597;SDS011;62026;39.230;9.122;2023-07-20T09:55:46;18.33;;;3.55;;
67597;SDS011;62026;39.230;9.122;2023-07-20T09:58:13;15.40;;;3.92;;
67597;SDS011;62026;39.230;9.122;2023-07-20T10:00:41;18.42;;;3.88;;
67597;SDS011;62026;39.230;9.122;2023-07-20T10:03:13;14.07;;;4.13;;
67597;SDS011;62026;39.230;9.122;2023-07-20T10:05:51;13.55;;;3.53;;
67597;SDS011;62026;39.230;9.122;2023-07-20T10:08:23;14.88;;;3.50;;
67597;SDS011;62026;39.230;9.122;2023-07-20T10:10:50;15.98;;;4.10;;
67597;SDS011;62026;39.230;9.122;2023-07-20T10:13:17;13.32;;;3.60;;
67597;SDS011;62026;39.230;9.122;2023-07-20T10:15:50;13.23;;;3.60;;
67597;SDS011;62026;39.230;9.122;2023-07-20T10:20:55;14.75;;;3.63;;
67597;SDS011;62026;39.230;9.122;2023-07-20T10:23:26;18.00;;;3.92;;
67597;SDS011;62026;39.230;9.122;2023-07-20T10:25:55;18.48;;;4.03;;
67597;SDS011;62026;39.230;9.122;2023-07-20T10:28:23;21.48;;;4.18;;
67597;SDS011;62026;39.230;9.122;2023-07-20T10:30:50;18.98;;;4.80;;
67597;SDS011;62026;39.230;9.122;2023-07-20T10:33:17;12.07;;;3.65;;
67597;SDS011;62026;39.230;9.122;2023-07-20T10:41:57;19.15;;;3.78;;
67597;SDS011;62026;39.230;9.122;2023-07-20T10:44:08;22.63;;;4.45;;
67597;SDS011;62026;39.230;9.122;2023-07-20T10:49:05;18.08;;;3.95;;
67597;SDS011;62026;39.230;9.122;2023-07-20T10:51:46;15.13;;;4.00;;
67597;SDS011;62026;39.230;9.122;2023-07-20T10:56:43;18.77;;;4.93;;
67597;SDS011;62026;39.230;9.122;2023-07-20T10:59:19;22.30;;;4.28;;
67597;SDS011;62026;39.230;9.122;2023-07-20T11:02:06;14.57;;;4.25;;
67597;SDS011;62026;39.230;9.122;2023-07-20T11:04:44;17.02;;;4.72;;
67597;SDS011;62026;39.230;9.122;2023-07-20T11:07:16;24.00;;;4.13;;
67597;SDS011;62026;39.230;9.122;2023-07-20T11:10:15;24.20;;;4.10;;
67597;SDS011;62026;39.230;9.122;2023-07-20T11:13:10;19.20;;;4.40;;
67597;SDS011;62026;39.230;9.122;2023-07-20T11:15:48;17.10;;;3.70;;
67597;SDS011;62026;39.230;9.122;2023-07-20T11:18:26;14.38;;;5.30;;
67597;SDS011;62026;39.230;9.122;2023-07-20T11:20:52;14.80;;;4.05;;
67597;SDS011;62026;39.230;9.122;2023-07-20T11:23:19;18.60;;;4.18;;
67597;SDS011;62026;39.230;9.122;2023-07-20T11:25:46;14.60;;;4.20;;
67597;SDS011;62026;39.230;9.122;2023-07-20T11:28:12;19.52;;;4.50;;
67597;SDS011;62026;39.230;9.122;2023-07-20T11:30:38;23.17;;;4.15;;
67597;SDS011;62026;39.230;9.122;2023-07-20T11:33:04;17.70;;;4.15;;
67597;SDS011;62026;39.230;9.122;2023-07-20T11:35:42;20.55;;;3.85;;
67597;SDS011;62026;39.230;9.122;2023-07-20T11:38:16;20.73;;;4.05;;
67597;SDS011;62026;39.230;9.122;2023-07-20T11:40:45;20.13;;;4.25;;
67597;SDS011;62026;39.230;9.122;2023-07-20T11:43:12;12.80;;;3.67;;
67597;SDS011;62026;39.230;9.122;2023-07-20T11:45:39;19.88;;;3.92;;
67597;SDS011;62026;39.230;9.122;2023-07-20T11:48:05;17.92;;;4.78;;
67597;SDS011;62026;39.230;9.122;2023-07-20T11:50:31;20.00;;;4.28;;
67597;SDS011;62026;39.230;9.122;2023-07-20T11:52:57;16.55;;;4.30;;
67597;SDS011;62026;39.230;9.122;2023-07-20T11:55:23;20.75;;;4.05;;
67597;SDS011;62026;39.230;9.122;2023-07-20T12:00:36;21.83;;;4.30;;
67597;SDS011;62026;39.230;9.122;2023-07-20T12:03:07;18.83;;;4.20;;
67597;SDS011;62026;39.230;9.122;2023-07-20T12:05:33;18.15;;;3.97;;
67597;SDS011;62026;39.230;9.122;2023-07-20T12:08:00;16.15;;;4.07;;
67597;SDS011;62026;39.230;9.122;2023-07-20T12:10:26;20.40;;;4.15;;
67597;SDS011;62026;39.230;9.122;2023-07-20T12:12:54;23.92;;;4.82;;
67597;SDS011;62026;39.230;9.122;2023-07-20T12:15:20;24.00;;;4.50;;
67597;SDS011;62026;39.230;9.122;2023-07-20T12:17:52;16.85;;;3.95;;
67597;SDS011;62026;39.230;9.122;2023-07-20T12:20:24;11.45;;;4.05;;
67597;SDS011;62026;39.230;9.122;2023-07-20T12:22:59;19.27;;;4.10;;
67597;SDS011;62026;39.230;9.122;2023-07-20T12:25:37;16.48;;;4.60;;
67597;SDS011;62026;39.230;9.122;2023-07-20T12:28:09;15.57;;;3.92;;
67597;SDS011;62026;39.230;9.122;2023-07-20T12:30:43;21.20;;;4.50;;
67597;SDS011;62026;39.230;9.122;2023-07-20T12:33:10;14.80;;;4.55;;
67597;SDS011;62026;39.230;9.122;2023-07-20T12:35:40;18.15;;;5.10;;
67597;SDS011;62026;39.230;9.122;2023-07-20T12:38:08;18.88;;;4.95;;
67597;SDS011;62026;39.230;9.122;2023-07-20T12:40:34;16.92;;;4.05;;
67597;SDS011;62026;39.230;9.122;2023-07-20T12:43:01;22.27;;;4.65;;
67597;SDS011;62026;39.230;9.122;2023-07-20T12:45:27;20.73;;;4.47;;
67597;SDS011;62026;39.230;9.122;2023-07-20T12:47:53;20.92;;;3.97;;
67597;SDS011;62026;39.230;9.122;2023-07-20T12:50:19;14.65;;;4.35;;
67597;SDS011;62026;39.230;9.122;2023-07-20T12:52:45;17.30;;;4.13;;
67597;SDS011;62026;39.230;9.122;2023-07-20T12:55:11;22.48;;;4.63;;
67597;SDS011;62026;39.230;9.122;2023-07-20T12:57:38;16.35;;;4.47;;
67597;SDS011;62026;39.230;9.122;2023-07-20T13:00:04;19.02;;;4.43;;
67597;SDS011;62026;39.230;9.122;2023-07-20T13:02:35;21.77;;;4.70;;
67597;SDS011;62026;39.230;9.122;2023-07-20T13:05:01;17.27;;;4.63;;
67597;SDS011;62026;39.230;9.122;2023-07-20T13:07:35;19.98;;;5.07;;
67597;SDS011;62026;39.230;9.122;2023-07-20T13:10:03;19.30;;;5.43;;
67597;SDS011;62026;39.230;9.122;2023-07-20T13:12:31;18.65;;;4.93;;
67597;SDS011;62026;39.230;9.122;2023-07-20T13:14:59;19.63;;;4.93;;
67597;SDS011;62026;39.230;9.122;2023-07-20T13:17:31;20.60;;;5.25;;
67597;SDS011;62026;39.230;9.122;2023-07-20T13:19:58;21.77;;;5.20;;
67597;SDS011;62026;39.230;9.122;2023-07-20T13:22:24;26.92;;;5.70;;
67597;SDS011;62026;39.230;9.122;2023-07-20T13:24:50;15.88;;;5.10;;
67597;SDS011;62026;39.230;9.122;2023-07-20T13:27:17;18.10;;;5.35;;
67597;SDS011;62026;39.230;9.122;2023-07-20T13:29:44;19.83;;;5.03;;
67597;SDS011;62026;39.230;9.122;2023-07-20T13:32:14;19.98;;;4.72;;
67597;SDS011;62026;39.230;9.122;2023-07-20T13:34:41;22.73;;;5.30;;
67597;SDS011;62026;39.230;9.122;2023-07-20T13:37:08;20.55;;;5.07;;
67597;SDS011;62026;39.230;9.122;2023-07-20T13:39:34;23.67;;;5.85;;
67597;SDS011;62026;39.230;9.122;2023-07-20T13:42:00;19.92;;;5.60;;
67597;SDS011;62026;39.230;9.122;2023-07-20T13:44:30;20.42;;;5.50;;
67597;SDS011;62026;39.230;9.122;2023-07-20T13:46:57;20.60;;;5.45;;
67597;SDS011;62026;39.230;9.122;2023-07-20T13:49:23;26.20;;;6.03;;
67597;SDS011;62026;39.230;9.122;2023-07-20T13:51:49;18.58;;;5.20;;
67597;SDS011;62026;39.230;9.122;2023-07-20T13:54:15;23.80;;;6.00;;
67597;SDS011;62026;39.230;9.122;2023-07-20T13:56:41;18.00;;;5.72;;
67597;SDS011;62026;39.230;9.122;2023-07-20T13:59:07;15.60;;;5.20;;
67597;SDS011;62026;39.230;9.122;2023-07-20T14:01:33;22.60;;;5.78;;
67597;SDS011;62026;39.230;9.122;2023-07-20T14:04:00;19.88;;;5.22;;
67597;SDS011;62026;39.230;9.122;2023-07-20T14:06:29;17.00;;;5.25;;
67597;SDS011;62026;39.230;9.122;2023-07-20T14:08:56;18.02;;;5.28;;
67597;SDS011;62026;39.230;9.122;2023-07-20T14:11:23;19.60;;;5.30;;
67597;SDS011;62026;39.230;9.122;2023-07-20T14:13:51;16.70;;;5.20;;
67597;SDS011;62026;39.230;9.122;2023-07-20T14:16:21;26.35;;;5.80;;
67597;SDS011;62026;39.230;9.122;2023-07-20T14:18:47;19.52;;;5.53;;
67597;SDS011;62026;39.230;9.122;2023-07-20T14:21:15;22.15;;;5.38;;
67597;SDS011;62026;39.230;9.122;2023-07-20T14:23:45;21.75;;;5.50;;
67597;SDS011;62026;39.230;9.122;2023-07-20T14:26:13;27.65;;;6.30;;
67597;SDS011;62026;39.230;9.122;2023-07-20T14:28:39;18.35;;;5.53;;
67597;SDS011;62026;39.230;9.122;2023-07-20T14:31:05;23.55;;;5.50;;
67597;SDS011;62026;39.230;9.122;2023-07-20T14:33:32;25.10;;;5.47;;
67597;SDS011;62026;39.230;9.122;2023-07-20T14:35:58;17.48;;;5.13;;
67597;SDS011;62026;39.230;9.122;2023-07-20T14:38:26;28.60;;;5.88;;
67597;SDS011;62026;39.230;9.122;2023-07-20T14:41:02;21.73;;;5.35;;
67597;SDS011;62026;39.230;9.122;2023-07-20T14:43:31;22.85;;;5.78;;
67597;SDS011;62026;39.230;9.122;2023-07-20T14:45:57;22.20;;;5.85;;
67597;SDS011;62026;39.230;9.122;2023-07-20T14:48:23;18.10;;;5.25;;
67597;SDS011;62026;39.230;9.122;2023-07-20T14:50:49;16.48;;;4.85;;
67597;SDS011;62026;39.230;9.122;2023-07-20T14:53:15;20.45;;;5.47;;
67597;SDS011;62026;39.230;9.122;2023-07-20T14:55:41;21.08;;;5.55;;
67597;SDS011;62026;39.230;9.122;2023-07-20T14:58:08;21.90;;;5.30;;
67597;SDS011;62026;39.230;9.122;2023-07-20T15:00:34;19.98;;;5.43;;
67597;SDS011;62026;39.230;9.122;2023-07-20T15:03:00;25.15;;;5.00;;
67597;SDS011;62026;39.230;9.122;2023-07-20T15:05:26;21.35;;;5.07;;
67597;SDS011;62026;39.230;9.122;2023-07-20T15:07:52;17.98;;;5.32;;
67597;SDS011;62026;39.230;9.122;2023-07-20T15:10:19;22.45;;;5.70;;